createdAt,value
2019-03-24T00:02:59.214Z,8.12
2019-03-24T00:07:06.799Z,8.10
2019-03-24T00:11:14.431Z,8.02
2019-03-24T00:15:26.438Z,7.98
2019-03-24T00:19:31.292Z,7.97
2019-03-24T00:23:38.784Z,7.93
2019-03-24T00:27:48.699Z,7.98
2019-03-24T00:31:56.198Z,7.99
2019-03-24T00:36:04.727Z,7.93
2019-03-24T00:40:13.989Z,7.91
2019-03-24T00:44:21.637Z,7.90
2019-03-24T00:48:29.196Z,7.96
2019-03-24T00:52:36.771Z,7.82
2019-03-24T00:56:44.277Z,7.77
2019-03-24T01:00:53.507Z,7.76
2019-03-24T01:05:01.186Z,7.73
2019-03-24T01:09:12.311Z,7.73
2019-03-24T01:13:20.040Z,7.68
2019-03-24T01:17:27.723Z,7.65
2019-03-24T01:21:36.322Z,7.66
2019-03-24T01:25:43.974Z,7.68
2019-03-24T01:29:51.936Z,7.56
2019-03-24T01:33:59.594Z,7.60
2019-03-24T01:38:07.512Z,7.59
2019-03-24T01:42:14.987Z,7.58
2019-03-24T01:46:22.664Z,7.52
2019-03-24T01:50:30.379Z,7.55
2019-03-24T01:54:41.175Z,7.48
2019-03-24T01:58:48.713Z,7.45
2019-03-24T02:02:56.232Z,7.46
2019-03-24T02:07:03.931Z,7.44
2019-03-24T02:11:11.523Z,7.43
2019-03-24T02:15:19.180Z,7.37
2019-03-24T02:19:26.743Z,7.40
2019-03-24T02:23:34.428Z,7.39
2019-03-24T02:27:43.079Z,7.35
2019-03-24T02:31:50.755Z,7.32
2019-03-24T02:35:59.501Z,7.29
2019-03-24T02:40:08.089Z,7.27
2019-03-24T02:44:15.750Z,7.23
2019-03-24T02:48:23.244Z,7.27
2019-03-24T02:52:30.950Z,7.28
2019-03-24T02:56:38.451Z,7.23
2019-03-24T03:00:46.204Z,7.18
2019-03-24T03:04:53.907Z,7.23
2019-03-24T03:09:01.494Z,7.16
2019-03-24T03:13:10.521Z,7.14
2019-03-24T03:17:18.056Z,7.20
2019-03-24T03:21:25.742Z,7.01
2019-03-24T03:25:33.373Z,7.07
2019-03-24T03:29:40.979Z,6.98
2019-03-24T03:33:48.540Z,6.93
2019-03-24T03:37:56.165Z,6.92
2019-03-24T03:42:03.764Z,6.85
2019-03-24T03:46:11.350Z,6.90
2019-03-24T03:50:18.960Z,6.89
2019-03-24T03:54:26.442Z,6.88
2019-03-24T03:58:34.050Z,6.80
2019-03-24T04:02:41.586Z,6.84
2019-03-24T04:06:49.341Z,6.84
2019-03-24T04:10:56.970Z,6.88
2019-03-24T04:15:04.747Z,6.91
2019-03-24T04:19:12.341Z,6.84
2019-03-24T04:23:19.970Z,6.81
2019-03-24T04:27:27.565Z,6.89
2019-03-24T04:31:35.207Z,6.84
2019-03-24T04:35:42.842Z,6.89
2019-03-24T04:39:50.456Z,6.82
2019-03-24T04:43:58.979Z,6.77
2019-03-24T04:48:06.802Z,6.73
2019-03-24T04:52:14.511Z,6.76
2019-03-24T04:56:22.074Z,6.71
2019-03-24T05:00:38.714Z,6.68
2019-03-24T05:04:46.214Z,6.68
2019-03-24T05:08:54.361Z,6.70
2019-03-24T05:13:02.090Z,6.66
2019-03-24T05:17:11.230Z,6.68
2019-03-24T05:21:18.810Z,6.66
2019-03-24T05:25:26.500Z,6.62
2019-03-24T05:29:34.210Z,6.63
2019-03-24T05:33:41.731Z,6.64
2019-03-24T05:37:49.249Z,6.67
2019-03-24T05:41:56.922Z,6.62
2019-03-24T05:46:04.554Z,6.67
2019-03-24T05:50:12.246Z,6.73
2019-03-24T05:54:19.955Z,6.84
2019-03-24T05:58:27.528Z,6.83
2019-03-24T06:02:35.034Z,6.99
2019-03-24T06:06:42.664Z,7.00
2019-03-24T06:10:50.400Z,7.09
2019-03-24T06:14:57.977Z,7.18
2019-03-24T06:19:05.895Z,7.24
2019-03-24T06:23:13.554Z,7.31
2019-03-24T06:27:21.436Z,7.34
2019-03-24T06:31:29.229Z,7.46
2019-03-24T06:35:36.961Z,7.49
2019-03-24T06:39:44.622Z,7.63
2019-03-24T06:43:52.756Z,7.74
2019-03-24T06:48:00.538Z,7.64
2019-03-24T06:52:08.203Z,7.74
2019-03-24T06:56:17.374Z,7.83
2019-03-24T07:00:25.107Z,7.91
2019-03-24T07:04:32.795Z,7.96
2019-03-24T07:08:40.507Z,8.02
2019-03-24T07:12:48.170Z,8.08
2019-03-24T07:16:55.716Z,8.19
2019-03-24T07:21:03.306Z,8.21
2019-03-24T07:25:11.090Z,8.35
2019-03-24T07:29:19.260Z,8.60
2019-03-24T07:33:27.004Z,8.70
2019-03-24T07:37:34.712Z,8.70
2019-03-24T07:41:45.425Z,8.74
2019-03-24T07:45:52.055Z,8.93
2019-03-24T07:49:59.560Z,9.06
2019-03-24T07:54:07.221Z,9.18
2019-03-24T07:58:15.014Z,9.34
2019-03-24T08:02:24.117Z,9.36
2019-03-24T08:06:31.872Z,9.58
2019-03-24T08:10:39.670Z,9.68
2019-03-24T08:14:47.390Z,9.77
2019-03-24T08:18:54.887Z,9.92
2019-03-24T08:23:02.707Z,10.01
2019-03-24T08:27:10.501Z,10.09
2019-03-24T08:31:18.969Z,10.21
2019-03-24T08:35:26.883Z,10.36
2019-03-24T08:39:34.597Z,10.54
2019-03-24T08:43:42.579Z,11.09
2019-03-24T08:47:50.289Z,10.78
2019-03-24T08:51:58.074Z,10.98
2019-03-24T08:56:06.233Z,11.24
2019-03-24T09:00:14.843Z,11.69
2019-03-24T09:04:24.517Z,12.05
2019-03-24T09:08:32.483Z,12.38
2019-03-24T09:12:40.278Z,12.04
2019-03-24T09:16:48.081Z,11.69
2019-03-24T09:20:57.061Z,12.02
2019-03-24T09:25:07.881Z,12.62
2019-03-24T09:29:15.961Z,13.19
2019-03-24T09:33:23.568Z,13.33
2019-03-24T09:37:31.582Z,13.56
2019-03-24T09:41:40.768Z,13.71
2019-03-24T09:45:48.735Z,13.42
2019-03-24T09:49:56.383Z,13.40
2019-03-24T09:54:04.679Z,13.55
2019-03-24T09:58:12.506Z,13.62
2019-03-24T10:02:20.587Z,13.28
2019-03-24T10:06:28.371Z,13.13
2019-03-24T10:10:36.045Z,13.13
2019-03-24T10:14:43.694Z,12.95
2019-03-24T10:18:51.334Z,12.80
2019-03-24T10:22:59.034Z,13.55
2019-03-24T10:27:06.870Z,13.31
2019-03-24T10:31:14.904Z,13.80
2019-03-24T10:35:22.827Z,14.05
2019-03-24T10:39:31.999Z,14.04
2019-03-24T10:43:40.025Z,14.73
2019-03-24T10:47:47.965Z,14.68
2019-03-24T10:51:56.063Z,14.47
2019-03-24T10:56:03.970Z,15.02
2019-03-24T11:00:14.212Z,15.02
2019-03-24T11:04:22.172Z,15.48
2019-03-24T11:08:30.094Z,14.51
2019-03-24T11:12:39.315Z,15.73
2019-03-24T11:16:47.173Z,16.19
2019-03-24T11:20:55.184Z,16.33
2019-03-24T11:25:03.232Z,15.97
2019-03-24T11:29:13.063Z,15.91
2019-03-24T11:33:21.483Z,16.30
2019-03-24T11:37:29.505Z,17.20
2019-03-24T11:41:37.394Z,16.81
2019-03-24T11:45:45.064Z,17.62
2019-03-24T11:49:54.581Z,17.01
2019-03-24T11:54:04.081Z,17.33
2019-03-24T11:58:11.911Z,18.02
2019-03-24T12:02:20.094Z,17.81
2019-03-24T12:06:28.135Z,18.17
2019-03-24T12:10:37.364Z,18.22
2019-03-24T12:14:48.632Z,17.75
2019-03-24T12:18:56.773Z,17.86
2019-03-24T12:23:07.363Z,18.66
2019-03-24T12:27:14.963Z,18.36
2019-03-24T12:31:32.741Z,18.21
2019-03-24T12:35:40.905Z,16.80
2019-03-24T12:39:49.118Z,17.04
2019-03-24T12:44:09.476Z,16.93
2019-03-24T12:48:22.290Z,16.31
2019-03-24T12:52:30.607Z,16.18
2019-03-24T12:56:38.685Z,15.62
2019-03-24T13:00:47.765Z,15.47
2019-03-24T13:04:59.087Z,15.26
2019-03-24T13:09:08.669Z,15.02
2019-03-24T13:13:16.584Z,15.20
2019-03-24T13:17:26.556Z,15.08
2019-03-24T13:21:34.268Z,15.17
2019-03-24T13:25:41.981Z,15.11
2019-03-24T13:29:49.797Z,15.61
2019-03-24T13:33:57.838Z,15.10
2019-03-24T13:38:07.885Z,15.14
2019-03-24T13:42:15.601Z,15.14
2019-03-24T13:46:23.583Z,14.63
2019-03-24T13:50:32.019Z,14.72
2019-03-24T13:54:39.831Z,14.47
2019-03-24T13:58:47.745Z,14.40
2019-03-24T14:02:55.569Z,14.15
2019-03-24T14:07:03.276Z,14.16
2019-03-24T14:11:11.228Z,13.87
2019-03-24T14:15:18.762Z,13.86
2019-03-24T14:19:26.561Z,13.68
2019-03-24T14:23:37.443Z,13.56
2019-03-24T14:27:45.456Z,13.69
2019-03-24T14:31:53.392Z,13.46
2019-03-24T14:36:00.990Z,13.45
2019-03-24T14:40:09.123Z,13.30
2019-03-24T14:44:16.770Z,13.20
2019-03-24T14:48:24.551Z,13.16
2019-03-24T14:52:32.135Z,13.21
2019-03-24T14:56:40.087Z,13.21
2019-03-24T15:00:48.192Z,13.14
2019-03-24T15:04:55.988Z,13.26
2019-03-24T15:09:04.673Z,13.34
2019-03-24T15:13:12.476Z,13.46
2019-03-24T15:17:20.106Z,13.57
2019-03-24T15:21:29.060Z,13.48
2019-03-24T15:25:39.916Z,13.54
2019-03-24T15:29:52.298Z,13.43
2019-03-24T15:34:07.872Z,13.43
2019-03-24T15:38:15.564Z,13.32
2019-03-24T15:42:27.512Z,13.20
2019-03-24T15:46:33.521Z,13.37
2019-03-24T15:50:41.888Z,13.25
2019-03-24T15:54:50.351Z,13.31
2019-03-24T15:59:00.401Z,13.32
2019-03-24T16:03:09.873Z,13.29
2019-03-24T16:07:19.190Z,13.26
2019-03-24T16:11:44.821Z,13.27
2019-03-24T16:15:59.242Z,13.22
2019-03-24T16:20:07.520Z,13.02
2019-03-24T16:24:15.360Z,13.02
2019-03-24T16:28:23.177Z,13.02
2019-03-24T16:32:31.202Z,13.03
2019-03-24T16:36:38.924Z,13.12
2019-03-24T16:40:47.047Z,13.08
2019-03-24T16:44:55.135Z,12.99
2019-03-24T16:49:04.399Z,12.96
2019-03-24T16:53:12.120Z,12.95
2019-03-24T16:57:19.841Z,13.00
2019-03-24T17:01:27.429Z,12.97
2019-03-24T17:05:35.734Z,12.94
2019-03-24T17:09:43.505Z,12.95
2019-03-24T17:13:51.190Z,12.84
2019-03-24T17:17:58.956Z,12.78
2019-03-24T17:22:06.828Z,12.71
2019-03-24T17:26:14.537Z,12.72
2019-03-24T17:30:22.242Z,12.59
2019-03-24T17:34:30.002Z,12.50
2019-03-24T17:38:38.409Z,12.44
2019-03-24T17:42:47.107Z,12.23
2019-03-24T17:46:54.885Z,12.21
2019-03-24T17:51:02.786Z,12.06
2019-03-24T17:55:12.711Z,12.00
2019-03-24T17:59:20.783Z,11.87
2019-03-24T18:03:28.556Z,11.68
2019-03-24T18:07:36.190Z,11.66
2019-03-24T18:11:46.691Z,11.50
2019-03-24T18:15:54.616Z,11.46
2019-03-24T18:20:02.292Z,11.47
2019-03-24T18:24:10.788Z,11.39
2019-03-24T18:28:18.429Z,11.35
2019-03-24T18:32:25.995Z,11.29
2019-03-24T18:36:33.816Z,11.21
2019-03-24T18:40:43.566Z,11.38
2019-03-24T18:44:51.231Z,11.19
2019-03-24T18:48:58.896Z,11.15
2019-03-24T18:53:09.027Z,10.91
2019-03-24T18:57:17.070Z,10.91
2019-03-24T19:01:24.952Z,10.75
2019-03-24T19:05:35.126Z,10.72
2019-03-24T19:09:42.520Z,10.59
2019-03-24T19:13:50.974Z,10.45
2019-03-24T19:17:58.892Z,10.32
2019-03-24T19:22:07.334Z,10.26
2019-03-24T19:26:14.948Z,10.22
2019-03-24T19:30:35.244Z,10.17
2019-03-24T19:34:42.937Z,10.18
2019-03-24T19:38:50.783Z,9.98
2019-03-24T19:42:58.772Z,9.88
2019-03-24T19:47:07.814Z,9.81
2019-03-24T19:51:15.365Z,9.70
2019-03-24T19:55:22.955Z,9.74
2019-03-24T19:59:30.514Z,9.61
2019-03-24T20:03:38.021Z,9.54
2019-03-24T20:07:48.090Z,9.47
2019-03-24T20:11:55.148Z,9.43
2019-03-24T20:16:02.881Z,9.32
2019-03-24T20:20:10.585Z,9.27
2019-03-24T20:24:18.321Z,9.24
2019-03-24T20:28:25.976Z,9.22
2019-03-24T20:32:33.618Z,9.14
2019-03-24T20:36:44.303Z,9.12
2019-03-24T20:40:52.083Z,9.04
2019-03-24T20:45:01.151Z,9.00
2019-03-24T20:49:09.024Z,9.02
2019-03-24T20:53:18.486Z,8.98
2019-03-24T20:57:26.247Z,8.88
2019-03-24T21:01:33.778Z,8.83
2019-03-24T21:05:41.636Z,8.77
2019-03-24T21:09:49.314Z,8.70
2019-03-24T21:13:57.021Z,8.65
2019-03-24T21:18:04.946Z,8.62
2019-03-24T21:22:13.999Z,8.61
2019-03-24T21:26:21.809Z,8.53
2019-03-24T21:30:37.988Z,8.47
2019-03-24T21:34:45.490Z,8.40
2019-03-24T21:38:52.988Z,8.32
2019-03-24T21:43:00.510Z,8.28
2019-03-24T21:47:09.128Z,8.28
2019-03-24T21:51:16.959Z,8.22
2019-03-24T21:55:24.474Z,8.14
2019-03-24T21:59:32.048Z,8.10
2019-03-24T22:03:39.595Z,8.07
2019-03-24T22:07:47.319Z,8.30
2019-03-24T22:11:54.876Z,8.16
2019-03-24T22:16:02.390Z,8.20
2019-03-24T22:20:10.101Z,8.23
2019-03-24T22:24:17.715Z,8.30
2019-03-24T22:28:25.233Z,8.10
2019-03-24T22:32:32.727Z,8.07
2019-03-24T22:36:40.281Z,8.01
2019-03-24T22:40:47.773Z,7.93
2019-03-24T22:44:55.310Z,7.82
2019-03-24T22:49:02.860Z,7.73
2019-03-24T22:53:10.337Z,7.70
2019-03-24T22:57:17.852Z,7.58
2019-03-24T23:01:25.550Z,7.58
2019-03-24T23:05:33.136Z,7.54
2019-03-24T23:09:40.642Z,7.52
2019-03-24T23:13:48.167Z,7.57
2019-03-24T23:17:55.714Z,7.50
2019-03-24T23:22:06.159Z,7.48
2019-03-24T23:26:13.704Z,7.43
2019-03-24T23:30:21.373Z,7.39
2019-03-24T23:34:28.934Z,7.36
2019-03-24T23:38:36.481Z,7.28
2019-03-24T23:42:44.105Z,7.27
2019-03-24T23:46:51.617Z,7.20
2019-03-24T23:51:01.222Z,7.16
2019-03-24T23:55:08.933Z,7.23
2019-03-24T23:59:16.583Z,7.18
